Center Lovell, Maine
Current Conditions -  °F | °C
As of 10:44 AM on Thursday 23 Oct 2014 (Local Time) from KIZG Reporting Station
Moderate Rain Moderate Rain  
Wind Chill: 47°   Ceiling: 1200
Heat Index: 49°   Visibility: 1.5mi
Dew Point: 46°   Wind: 6mph
Humidity: 90%   Direction: NA
Pressure: 29.86"   Gusts: NA
Location:  44.18°N, 70.89°W
Report Text: KIZG 231444Z AUTO VRB05KT 1 1/2SM RA BR OVC012 09/08 A2986 RMK AO2 RAE07B11 P0013 T00940078
Loading
Personal Weather Stations






























Interactive Weather Map
Tropical Storm Tracking
New forecast layout! Learn more

10-Day Weather Forecast

Advertisements
Track Severe Weather on mobile